Aeroporto :
LOGIN :

Iscrizione | Disclaimer

   EN    FR    IT 

 










Sommario :    VFR   VFR Marginale   IFR   IFR Intensivo   IFR Molto Intensivo
Visibilità : 
Base nubi : 
>= 8 km
>= 3000ft
5 / 8 km
1000 / 3000 ft
1500m / 5 km
500 / 1000 ft
800 / 1500m
200 / 500 ft
< 800m
< 200 ft
Simboli :   Temporali  Nebbia  Neve Forte  Precipitazioni Forti  Vento > 20 kt
SIGMETs :   Varie  Temporali  Ghiacco  Turbolenza  Onda orograficha  Ceneri Vulcaniche






- Altitudine del aeroporto : 1197 ft
- Codice IATA : SPM


ETAD - Spangdahlem Ab

ULTIMO METAR :
  • 230256Z AUTO 07009KT 9999 OVC003 01/00 A3049 RMK AO2 SLP333 T00070004 57019 $

METARs OBSOLETI :
  • 230211Z AUTO 07008KT 9999 OVC004 01/01 A3051 RMK AO2 SLP340 $
  • 230156Z AUTO 07009KT 9999 OVC006 01/01 A3051 RMK AO2 CIG 004 RWY23 SLP340 T00080005 $
  • 230126Z AUTO 07010KT 9999 OVC006 01/01 A3052 RMK AO2 SLP345 $
  • 230111Z AUTO 06010KT 9999 OVC005 01/01 A3053 RMK AO2 SLP349 $
  • 230056Z AUTO 06008KT 9999 OVC004 01/01 A3053 RMK AO2 CIG 002V004 CIG 003 RWY23 SLP349 T00080005 $
  • 230041Z AUTO 05009KT 8000 BR OVC002 01/01 A3054 RMK AO2 SLP352 $
  • 230011Z AUTO 06009KT 4400 BR OVC002 01/00 A3055 RMK AO2 SLP354 $
  • 222356Z AUTO 06012KT 4000 BR OVC002 01/01 A3055 RMK AO2 VIS 3000V4000 SLP354 T00090005 10012 21014 53001 $

TAF TAF ETAD
Valido dal 22 a 21 ore il 24 a 03 ore UTC


222100Z 2221/2403 09006KT 8000 BR OVC004 QNH3050INS
BECMG 2301/2302 09006KT 2400 BR BKN003 OVC005 QNH3048INS
TEMPO 2303/2308 0800 FZFG VV002
BECMG 2309/2310 08006KT 6000 BR BKN005 OVC008 QNH3042INS
BECMG 2312/2313 09009KT 9999 NSW BKN012 OVC018 QNH3040INS
BECMG 2317/2318 14006KT 8000 BR BKN008 OVC012 QNH3030INS
TEMPO 2401/2403 5000 BR BKN005 OVC008 TX04/2314Z TNM02/2306Z



MetMap, La meteo Aeronautica in un colpo d'occhio ! - Copyright ORBIFLY Dicembre 2007 - Disclaimer

ORBIFLY MET'MAP TEAM :

Programmazione e sviluppo : Alexandra Zaïnal
Concezione : Baudouin d'Aumeries
Aiuto per la programmazione : Marc-Olivier Méhu
Supporto tecnico e logistico : Manuel Goepfert
Aiuto per la traduzione : Arnaldo La Scala

Contatto : metmap@orbifly.com




FONTI E CREDITI :

   NOAA